createdAt,value
2017-12-21T00:01:01.514Z,87.97
2017-12-21T00:03:29.326Z,86.25
2017-12-21T00:05:57.118Z,83.20
2017-12-21T00:08:24.896Z,88.03
2017-12-21T00:10:52.760Z,93.40
2017-12-21T00:13:20.570Z,85.03
2017-12-21T00:15:48.391Z,82.80
2017-12-21T00:18:16.208Z,77.55
2017-12-21T00:20:44.759Z,84.65
2017-12-21T00:23:12.549Z,83.60
2017-12-21T00:25:41.128Z,86.85
2017-12-21T00:28:08.875Z,86.50
2017-12-21T00:30:36.642Z,79.62
2017-12-21T00:33:04.455Z,88.37
2017-12-21T00:35:32.211Z,76.32
2017-12-21T00:37:59.982Z,75.68
2017-12-21T00:40:27.849Z,74.12
2017-12-21T00:42:55.611Z,75.60
2017-12-21T00:45:24.147Z,83.32
2017-12-21T00:47:52.732Z,78.03
2017-12-21T00:50:21.263Z,83.85
2017-12-21T00:52:49.024Z,72.32
2017-12-21T00:55:16.855Z,82.22
2017-12-21T00:57:44.618Z,66.75
2017-12-21T01:00:13.256Z,75.93
2017-12-21T01:02:41.078Z,79.95
2017-12-21T01:05:08.840Z,63.08
2017-12-21T01:07:36.602Z,81.90
2017-12-21T01:10:04.408Z,78.97
2017-12-21T01:12:33.148Z,73.18
2017-12-21T01:15:00.918Z,75.62
2017-12-21T01:17:28.730Z,81.82
2017-12-21T01:19:56.499Z,79.10
2017-12-21T01:22:25.020Z,79.40
2017-12-21T01:24:52.847Z,79.47
2017-12-21T01:27:21.378Z,79.85
2017-12-21T01:29:49.139Z,82.40
2017-12-21T01:32:16.950Z,77.95
2017-12-21T01:34:45.484Z,84.55
2017-12-21T01:37:13.246Z,89.40
2017-12-21T01:39:41.063Z,91.95
2017-12-21T01:42:08.880Z,89.20
2017-12-21T01:44:36.687Z,91.87
2017-12-21T01:47:04.540Z,87.35
2017-12-21T01:49:33.087Z,83.25
2017-12-21T01:52:00.889Z,94.95
2017-12-21T01:54:29.486Z,93.40
2017-12-21T01:56:57.254Z,83.97
2017-12-21T01:59:25.015Z,86.80
2017-12-21T02:01:52.887Z,91.22
2017-12-21T02:04:20.651Z,87.70
2017-12-21T02:06:48.406Z,86.25
2017-12-21T02:09:16.232Z,87.75
2017-12-21T02:11:44.750Z,96.07
2017-12-21T02:14:12.507Z,88.85
2017-12-21T02:16:40.314Z,87.93
2017-12-21T02:19:08.102Z,87.35
2017-12-21T02:21:36.670Z,102.07
2017-12-21T02:24:04.516Z,86.85
2017-12-21T02:26:32.292Z,84.85
2017-12-21T02:29:00.083Z,80.38
2017-12-21T02:31:28.699Z,80.72
2017-12-21T02:33:56.500Z,88.10
2017-12-21T02:36:24.294Z,79.18
2017-12-21T02:38:52.142Z,73.70
2017-12-21T02:41:20.710Z,85.97
2017-12-21T02:43:49.279Z,83.95
2017-12-21T02:46:17.121Z,83.53
2017-12-21T02:48:44.900Z,79.80
2017-12-21T02:51:12.702Z,83.10
2017-12-21T02:53:41.325Z,74.47
2017-12-21T02:56:09.107Z,80.40
2017-12-21T02:58:36.906Z,79.12
2017-12-21T03:01:05.511Z,82.55
2017-12-21T03:03:33.308Z,78.97
2017-12-21T03:06:01.086Z,86.60
2017-12-21T03:08:28.930Z,68.30
2017-12-21T03:10:56.708Z,70.15
2017-12-21T03:13:24.505Z,78.00
2017-12-21T03:15:53.117Z,67.65
2017-12-21T03:18:20.867Z,70.03
2017-12-21T03:20:48.662Z,68.25
2017-12-21T03:23:16.495Z,63.95
2017-12-21T03:25:44.258Z,72.10
2017-12-21T03:28:12.022Z,67.30
2017-12-21T03:30:39.885Z,71.43
2017-12-21T03:33:07.662Z,76.15
2017-12-21T03:35:35.439Z,66.00
2017-12-21T03:38:03.251Z,60.58
2017-12-21T03:40:31.074Z,73.47
2017-12-21T03:42:58.838Z,71.40
2017-12-21T03:45:26.664Z,72.47
2017-12-21T03:47:54.436Z,71.87
2017-12-21T03:50:22.214Z,61.17
2017-12-21T03:52:50.191Z,59.35
2017-12-21T03:55:17.991Z,75.28
2017-12-21T03:57:45.767Z,70.25
2017-12-21T04:00:13.602Z,72.78
2017-12-21T04:02:42.127Z,65.05
2017-12-21T04:05:09.896Z,63.13
2017-12-21T04:07:37.726Z,65.95
2017-12-21T04:10:05.496Z,66.00
2017-12-21T04:12:33.247Z,61.88
2017-12-21T04:15:01.064Z,60.42
2017-12-21T04:17:28.817Z,67.25
2017-12-21T04:19:56.587Z,69.97
2017-12-21T04:22:24.394Z,58.67
2017-12-21T04:24:52.159Z,62.70
2017-12-21T04:27:19.913Z,60.35
2017-12-21T04:29:48.488Z,59.20
2017-12-21T04:32:17.020Z,68.55
2017-12-21T04:34:44.772Z,67.55
2017-12-21T04:37:12.582Z,65.80
2017-12-21T04:39:41.123Z,73.93
2017-12-21T04:42:08.942Z,68.65
2017-12-21T04:44:37.549Z,69.40
2017-12-21T04:47:05.327Z,68.35
2017-12-21T04:49:33.083Z,72.62
2017-12-21T04:52:00.895Z,66.35
2017-12-21T04:54:29.419Z,60.85
2017-12-21T04:56:57.177Z,61.37
2017-12-21T04:59:25.777Z,63.72
2017-12-21T05:01:53.543Z,62.05
2017-12-21T05:04:21.315Z,64.78
2017-12-21T05:06:49.134Z,70.55
2017-12-21T05:09:16.903Z,66.28
2017-12-21T05:11:44.725Z,67.47
2017-12-21T05:14:13.317Z,71.80
2017-12-21T05:16:41.875Z,66.50
2017-12-21T05:19:09.663Z,67.07
2017-12-21T05:21:38.271Z,56.85
2017-12-21T05:24:06.033Z,57.60
2017-12-21T05:26:33.781Z,57.67
2017-12-21T05:29:02.363Z,63.78
2017-12-21T05:31:30.114Z,63.83
2017-12-21T05:33:58.650Z,66.00
2017-12-21T05:36:26.477Z,52.65
2017-12-21T05:38:54.233Z,57.58
2017-12-21T05:41:22.053Z,54.28
2017-12-21T05:43:49.878Z,64.68
2017-12-21T05:46:17.632Z,61.63
2017-12-21T05:48:45.391Z,51.58
2017-12-21T05:51:13.253Z,48.55
2017-12-21T05:53:41.027Z,53.38
2017-12-21T05:56:08.813Z,52.33
2017-12-21T05:58:36.634Z,64.28
2017-12-21T06:01:04.423Z,69.93
2017-12-21T06:03:32.191Z,56.97
2017-12-21T06:06:00.012Z,57.60
2017-12-21T06:08:28.521Z,59.30
2017-12-21T06:10:56.279Z,62.58
2017-12-21T06:13:24.104Z,55.97
2017-12-21T06:15:52.632Z,50.45
2017-12-21T06:18:20.399Z,43.35
2017-12-21T06:20:48.236Z,52.70
2017-12-21T06:23:16.000Z,56.65
2017-12-21T06:25:43.766Z,44.40
2017-12-21T06:28:11.601Z,44.50
2017-12-21T06:30:39.360Z,51.63
2017-12-21T06:33:07.125Z,59.33
2017-12-21T06:35:34.941Z,48.38
2017-12-21T06:38:02.696Z,44.47
2017-12-21T06:40:30.443Z,46.80
2017-12-21T06:42:58.255Z,52.40
2017-12-21T06:45:26.782Z,49.72
2017-12-21T06:47:54.562Z,53.05
2017-12-21T06:50:26.115Z,42.90
2017-12-21T06:52:53.875Z,46.15
2017-12-21T06:55:21.644Z,45.50
2017-12-21T06:57:50.230Z,49.10
2017-12-21T07:00:17.999Z,42.90
2017-12-21T07:02:45.767Z,50.88
2017-12-21T07:05:14.353Z,44.65
2017-12-21T07:07:42.143Z,49.00
2017-12-21T07:10:09.903Z,44.20
2017-12-21T07:12:37.723Z,39.45
2017-12-21T07:15:05.486Z,37.03
2017-12-21T07:17:33.258Z,39.03
2017-12-21T07:20:01.083Z,42.97
2017-12-21T07:22:28.847Z,47.92
2017-12-21T07:24:56.630Z,41.00
2017-12-21T07:27:24.440Z,40.78
2017-12-21T07:29:52.203Z,44.55
2017-12-21T07:32:19.992Z,39.92
2017-12-21T07:34:47.839Z,40.67
2017-12-21T07:37:15.638Z,46.10
2017-12-21T07:39:44.167Z,43.47
2017-12-21T07:42:11.983Z,46.05
2017-12-21T07:44:39.744Z,41.20
2017-12-21T07:47:07.503Z,42.38
2017-12-21T07:49:35.318Z,48.50
2017-12-21T07:52:03.087Z,50.78
2017-12-21T07:54:30.870Z,50.53
2017-12-21T07:56:58.834Z,40.03
2017-12-21T07:59:26.599Z,41.67
2017-12-21T08:01:54.366Z,45.22
2017-12-21T08:04:22.174Z,40.42
2017-12-21T08:06:50.719Z,46.15
2017-12-21T08:09:18.491Z,47.22
2017-12-21T08:11:46.316Z,46.40
2017-12-21T08:14:14.078Z,52.03
2017-12-21T08:16:41.830Z,46.65
2017-12-21T08:19:09.646Z,49.40
2017-12-21T08:21:37.648Z,42.20
2017-12-21T08:24:05.551Z,49.28
2017-12-21T08:26:33.408Z,40.75
2017-12-21T08:29:01.198Z,42.60
2017-12-21T08:31:28.957Z,40.33
2017-12-21T08:33:56.766Z,39.03
2017-12-21T08:36:24.607Z,37.35
2017-12-21T08:38:53.138Z,40.20
2017-12-21T08:41:20.985Z,38.38
2017-12-21T08:43:48.751Z,34.65
2017-12-21T08:46:16.527Z,45.30
2017-12-21T08:48:44.357Z,45.78
2017-12-21T08:51:12.223Z,44.47
2017-12-21T08:53:40.036Z,35.95
2017-12-21T08:56:07.873Z,39.22
2017-12-21T08:58:35.639Z,33.60
2017-12-21T09:01:03.460Z,34.35
2017-12-21T09:03:32.046Z,26.67
2017-12-21T09:06:00.610Z,31.55
2017-12-21T09:08:28.436Z,30.75
2017-12-21T09:10:56.298Z,29.58
2017-12-21T09:13:24.075Z,31.35
2017-12-21T09:15:51.895Z,32.30
2017-12-21T09:18:19.756Z,34.35
2017-12-21T09:20:47.537Z,33.85
2017-12-21T09:23:15.299Z,34.42
2017-12-21T09:25:43.383Z,45.20
2017-12-21T09:28:11.169Z,45.38
2017-12-21T09:30:38.935Z,40.38
2017-12-21T09:33:06.793Z,42.13
2017-12-21T09:35:34.567Z,32.83
2017-12-21T09:38:03.152Z,38.85
2017-12-21T09:40:31.762Z,43.90
2017-12-21T09:42:59.547Z,33.80
2017-12-21T09:45:28.113Z,34.63
2017-12-21T09:47:55.959Z,34.83
2017-12-21T09:50:23.887Z,32.35
2017-12-21T09:52:51.670Z,36.33
2017-12-21T09:55:20.246Z,33.60
2017-12-21T09:57:48.024Z,34.33
2017-12-21T10:00:15.854Z,34.45
2017-12-21T10:02:43.811Z,38.13
2017-12-21T10:05:11.603Z,34.25
2017-12-21T10:07:40.287Z,46.05
2017-12-21T10:10:08.287Z,40.20
2017-12-21T10:12:36.075Z,42.70
2017-12-21T10:15:04.055Z,40.80
2017-12-21T10:17:32.751Z,35.58
2017-12-21T10:20:00.517Z,40.35
2017-12-21T10:22:28.275Z,36.78
2017-12-21T10:24:56.111Z,41.45
2017-12-21T10:27:23.886Z,39.35
2017-12-21T10:29:51.647Z,37.15
2017-12-21T10:32:19.477Z,36.40
2017-12-21T10:34:47.237Z,38.70
2017-12-21T10:37:15.012Z,34.83
2017-12-21T10:39:42.844Z,36.78
2017-12-21T10:42:10.602Z,32.92
2017-12-21T10:44:39.129Z,37.13
2017-12-21T10:47:06.948Z,36.38
2017-12-21T10:49:34.740Z,35.70
2017-12-21T10:52:02.496Z,32.75
2017-12-21T10:54:30.356Z,33.42
2017-12-21T10:56:58.111Z,34.42
2017-12-21T10:59:25.881Z,40.42
2017-12-21T11:01:53.698Z,38.65
2017-12-21T11:04:22.238Z,31.87
2017-12-21T11:06:50.021Z,35.00
2017-12-21T11:09:17.898Z,37.97
2017-12-21T11:11:46.661Z,33.35
2017-12-21T11:14:15.231Z,37.40
2017-12-21T11:16:43.130Z,34.22
2017-12-21T11:19:10.933Z,29.02
2017-12-21T11:21:38.722Z,22.75
2017-12-21T11:24:06.600Z,27.08
2017-12-21T11:26:34.499Z,32.58
2017-12-21T11:29:02.282Z,25.60
2017-12-21T11:31:30.111Z,24.67
2017-12-21T11:33:58.699Z,27.10
2017-12-21T11:36:27.341Z,33.10
2017-12-21T11:38:55.289Z,27.20
2017-12-21T11:41:23.096Z,31.65
2017-12-21T11:43:51.059Z,39.92
2017-12-21T11:46:18.922Z,23.08
2017-12-21T11:48:46.750Z,26.15
2017-12-21T11:51:14.567Z,22.77
2017-12-21T11:53:43.266Z,25.58
2017-12-21T11:56:11.644Z,22.17
2017-12-21T11:58:39.447Z,25.15
2017-12-21T12:01:07.285Z,22.23
2017-12-21T12:03:35.068Z,19.87
2017-12-21T12:06:02.956Z,22.73
2017-12-21T12:08:31.588Z,20.05
2017-12-21T12:11:00.130Z,21.98
2017-12-21T12:13:27.929Z,19.30
2017-12-21T12:15:55.818Z,18.17
2017-12-21T12:18:23.646Z,23.80
2017-12-21T12:20:51.482Z,23.67
2017-12-21T12:23:19.335Z,25.33
2017-12-21T12:25:47.100Z,23.40
2017-12-21T12:28:14.884Z,23.33
2017-12-21T12:30:43.466Z,26.37
2017-12-21T12:33:11.990Z,18.90
2017-12-21T12:35:39.811Z,24.52
2017-12-21T12:38:07.762Z,24.12
2017-12-21T12:40:35.522Z,20.65
2017-12-21T12:43:03.284Z,23.05
2017-12-21T12:45:31.149Z,20.08
2017-12-21T12:47:59.458Z,21.10
2017-12-21T12:50:27.153Z,16.75
2017-12-21T12:52:54.903Z,20.50
2017-12-21T12:55:22.605Z,21.73
2017-12-21T12:57:50.297Z,27.70
2017-12-21T13:00:18.809Z,18.12
2017-12-21T13:02:46.501Z,14.85
2017-12-21T13:05:14.209Z,12.88
2017-12-21T13:07:41.959Z,13.35
2017-12-21T13:10:10.413Z,11.00
2017-12-21T13:12:38.147Z,12.13
2017-12-21T13:15:06.000Z,12.40
2017-12-21T13:17:33.678Z,11.23
2017-12-21T13:20:01.393Z,13.77
2017-12-21T13:22:29.135Z,14.57
2017-12-21T13:24:57.589Z,10.88
2017-12-21T13:27:25.299Z,13.20
2017-12-21T13:29:53.056Z,15.07
2017-12-21T13:32:20.750Z,16.40
2017-12-21T13:34:48.437Z,17.87
2017-12-21T13:37:16.186Z,16.25
2017-12-21T13:39:43.880Z,15.88
2017-12-21T13:42:12.341Z,15.32
2017-12-21T13:44:40.857Z,14.10
2017-12-21T13:47:08.551Z,15.55
2017-12-21T13:49:36.253Z,11.48
2017-12-21T13:52:04.765Z,14.40
2017-12-21T13:54:32.483Z,16.25
2017-12-21T13:57:00.969Z,11.30
2017-12-21T13:59:29.497Z,11.70
2017-12-21T14:01:57.216Z,13.65
2017-12-21T14:04:24.902Z,12.90
2017-12-21T14:06:52.645Z,10.70
2017-12-21T14:09:21.092Z,11.68
2017-12-21T14:11:48.778Z,11.98
2017-12-21T14:14:17.281Z,17.15
2017-12-21T14:16:44.969Z,10.77
2017-12-21T14:19:12.654Z,13.95
2017-12-21T14:21:40.393Z,11.98
2017-12-21T14:24:08.074Z,11.20
2017-12-21T14:26:35.756Z,13.35
2017-12-21T14:29:03.488Z,14.50
2017-12-21T14:31:31.186Z,16.08
2017-12-21T14:33:58.881Z,16.33
2017-12-21T14:36:26.620Z,20.92
2017-12-21T14:38:54.310Z,14.27
2017-12-21T14:41:22.002Z,16.33
2017-12-21T14:43:49.784Z,16.45
2017-12-21T14:46:18.246Z,19.58
2017-12-21T14:48:46.693Z,20.83
2017-12-21T14:51:14.432Z,24.52
2017-12-21T14:53:42.125Z,26.00
2017-12-21T14:56:09.806Z,41.28
2017-12-21T14:58:38.311Z,20.83
2017-12-21T15:01:05.997Z,17.75
2017-12-21T15:03:33.700Z,19.98
2017-12-21T15:06:01.453Z,19.30
2017-12-21T15:08:29.283Z,15.65
2017-12-21T15:10:57.061Z,16.52
2017-12-21T15:13:24.995Z,17.05
2017-12-21T15:15:52.688Z,15.82
2017-12-21T15:18:20.369Z,17.50
2017-12-21T15:20:48.272Z,18.23
2017-12-21T15:23:15.977Z,20.42
2017-12-21T15:25:43.664Z,17.12
2017-12-21T15:28:12.169Z,15.50
2017-12-21T15:30:39.852Z,21.58
2017-12-21T15:33:07.539Z,15.82
2017-12-21T15:35:35.445Z,21.52
2017-12-21T15:38:03.169Z,15.82
2017-12-21T15:40:30.902Z,18.67
2017-12-21T15:42:58.657Z,18.15
2017-12-21T15:45:26.341Z,15.75
2017-12-21T15:47:54.054Z,20.05
2017-12-21T15:50:21.883Z,22.10
2017-12-21T15:52:50.350Z,28.17
2017-12-21T15:55:18.036Z,22.02
2017-12-21T15:57:46.593Z,27.95
2017-12-21T16:00:14.441Z,24.92
2017-12-21T16:02:42.242Z,30.40
2017-12-21T16:05:10.898Z,32.13
2017-12-21T16:07:38.654Z,25.92
2017-12-21T16:10:06.392Z,24.63
2017-12-21T16:12:34.224Z,26.35
2017-12-21T16:15:02.032Z,28.10
2017-12-21T16:17:29.738Z,30.73
2017-12-21T16:19:57.514Z,24.52
2017-12-21T16:22:25.193Z,24.17
2017-12-21T16:24:53.094Z,28.73
2017-12-21T16:27:20.862Z,23.67
2017-12-21T16:29:49.006Z,21.33
2017-12-21T16:32:16.753Z,19.73
2017-12-21T16:34:44.563Z,23.80
2017-12-21T16:37:12.344Z,19.10
2017-12-21T16:39:40.914Z,17.12
2017-12-21T16:42:09.451Z,19.08
2017-12-21T16:44:37.320Z,19.98
2017-12-21T16:47:05.014Z,20.42
2017-12-21T16:49:33.338Z,19.45
2017-12-21T16:52:01.034Z,18.45
2017-12-21T16:54:29.045Z,19.30
2017-12-21T16:56:57.016Z,18.87
2017-12-21T16:59:24.708Z,22.75
2017-12-21T17:01:52.453Z,22.77
2017-12-21T17:04:20.366Z,27.98
2017-12-21T17:06:48.153Z,22.00
2017-12-21T17:09:17.542Z,25.00
2017-12-21T17:11:46.218Z,21.77
2017-12-21T17:14:14.697Z,21.60
2017-12-21T17:16:43.151Z,19.65
2017-12-21T17:19:10.922Z,22.73
2017-12-21T17:21:38.614Z,24.87
2017-12-21T17:24:06.321Z,25.15
2017-12-21T17:26:34.099Z,25.58
2017-12-21T17:29:01.797Z,28.40
2017-12-21T17:31:29.476Z,24.17
2017-12-21T17:33:57.227Z,24.35
2017-12-21T17:36:24.986Z,24.00
2017-12-21T17:38:52.693Z,20.98
2017-12-21T17:41:22.814Z,26.17
2017-12-21T17:43:50.982Z,25.62
2017-12-21T17:46:19.570Z,26.27
2017-12-21T17:48:47.403Z,26.95
2017-12-21T17:51:15.100Z,27.48
2017-12-21T17:53:42.800Z,24.55
2017-12-21T17:56:11.705Z,28.05
2017-12-21T17:58:39.395Z,28.20
2017-12-21T18:01:07.878Z,22.87
2017-12-21T18:03:35.626Z,22.77
2017-12-21T18:06:03.326Z,20.92
2017-12-21T18:08:31.068Z,27.73
2017-12-21T18:10:58.913Z,24.83
2017-12-21T18:13:26.653Z,24.40
2017-12-21T18:15:54.867Z,26.33
2017-12-21T18:18:22.619Z,24.10
2017-12-21T18:20:50.309Z,27.80
2017-12-21T18:23:18.770Z,20.25
2017-12-21T18:25:46.534Z,22.50
2017-12-21T18:28:15.023Z,22.92
2017-12-21T18:30:43.481Z,19.52
2017-12-21T18:33:11.218Z,23.33
2017-12-21T18:35:38.910Z,24.52
2017-12-21T18:38:06.601Z,22.13
2017-12-21T18:40:34.346Z,19.10
2017-12-21T18:43:02.810Z,20.85
2017-12-21T18:45:30.513Z,22.98
2017-12-21T18:47:58.294Z,18.95
2017-12-21T18:50:26.048Z,24.70
2017-12-21T18:52:53.729Z,23.83
2017-12-21T18:55:21.470Z,23.50
2017-12-21T18:57:49.163Z,19.62
2017-12-21T19:00:16.877Z,18.48
2017-12-21T19:02:44.875Z,18.73
2017-12-21T19:05:12.645Z,22.80
2017-12-21T19:07:40.340Z,25.23
2017-12-21T19:10:08.857Z,24.40
2017-12-21T19:12:36.583Z,25.55
2017-12-21T19:15:05.072Z,20.90
2017-12-21T19:17:32.826Z,24.37
2017-12-21T19:20:01.277Z,23.52
2017-12-21T19:22:28.969Z,24.20
2017-12-21T19:24:57.497Z,19.52
2017-12-21T19:27:25.204Z,20.37
2017-12-21T19:29:52.894Z,22.25
2017-12-21T19:32:20.661Z,21.85
2017-12-21T19:34:48.365Z,25.33
2017-12-21T19:37:16.073Z,25.23
2017-12-21T19:39:43.822Z,23.00
2017-12-21T19:42:11.521Z,23.42
2017-12-21T19:44:39.211Z,29.92
2017-12-21T19:47:07.736Z,31.70
2017-12-21T19:49:35.450Z,30.30
2017-12-21T19:52:03.133Z,38.15
2017-12-21T19:54:30.903Z,28.75
2017-12-21T19:56:59.495Z,26.33
2017-12-21T19:59:27.190Z,21.10
2017-12-21T20:01:54.942Z,20.05
2017-12-21T20:04:22.641Z,19.48
2017-12-21T20:06:51.111Z,20.80
2017-12-21T20:09:18.874Z,25.02
2017-12-21T20:11:46.579Z,21.70
2017-12-21T20:14:14.282Z,17.73
2017-12-21T20:16:42.042Z,16.40
2017-12-21T20:19:09.736Z,20.80
2017-12-21T20:21:38.238Z,20.00
2017-12-21T20:24:05.989Z,17.52
2017-12-21T20:26:33.726Z,20.23
2017-12-21T20:29:02.241Z,19.85
2017-12-21T20:31:29.986Z,20.10
2017-12-21T20:33:57.683Z,24.17
2017-12-21T20:36:25.374Z,20.67
2017-12-21T20:38:53.138Z,18.73
2017-12-21T20:41:20.854Z,19.15
2017-12-21T20:43:48.585Z,19.08
2017-12-21T20:46:16.340Z,19.15
2017-12-21T20:48:44.806Z,19.42
2017-12-21T20:51:12.494Z,18.40
2017-12-21T20:53:40.241Z,18.92
2017-12-21T20:56:08.694Z,20.70
2017-12-21T20:58:36.381Z,19.80
2017-12-21T21:01:04.909Z,17.30
2017-12-21T21:03:32.626Z,16.75
2017-12-21T21:06:00.329Z,17.00
2017-12-21T21:08:28.185Z,17.23
2017-12-21T21:10:55.889Z,13.85
2017-12-21T21:13:24.370Z,15.93
2017-12-21T21:15:52.984Z,17.10
2017-12-21T21:18:20.702Z,14.82
2017-12-21T21:20:48.425Z,18.85
2017-12-21T21:23:16.169Z,20.20
2017-12-21T21:25:44.067Z,18.70
2017-12-21T21:28:11.832Z,19.85
2017-12-21T21:30:39.610Z,17.42
2017-12-21T21:33:07.307Z,18.65
2017-12-21T21:35:35.030Z,18.50
2017-12-21T21:38:02.794Z,18.10
2017-12-21T21:40:30.525Z,17.67
2017-12-21T21:42:58.316Z,23.02
2017-12-21T21:45:26.620Z,22.45
2017-12-21T21:47:54.326Z,17.08
2017-12-21T21:50:22.012Z,15.18
2017-12-21T21:52:49.767Z,18.40
2017-12-21T21:55:17.489Z,15.65
2017-12-21T21:57:45.243Z,14.90
2017-12-21T22:00:13.021Z,16.52
2017-12-21T22:02:40.770Z,18.45
2017-12-21T22:05:08.463Z,13.60
2017-12-21T22:07:36.230Z,17.85
2017-12-21T22:10:04.966Z,16.75
2017-12-21T22:12:32.708Z,12.45
2017-12-21T22:15:01.254Z,25.45
2017-12-21T22:17:29.603Z,14.70
2017-12-21T22:19:57.506Z,18.83
2017-12-21T22:22:25.282Z,15.93
2017-12-21T22:24:53.790Z,14.10
2017-12-21T22:27:21.502Z,16.50
2017-12-21T22:29:49.349Z,22.52
2017-12-21T22:32:17.038Z,16.77
2017-12-21T22:34:44.743Z,11.80
2017-12-21T22:37:12.517Z,16.62
2017-12-21T22:39:40.385Z,15.43
2017-12-21T22:42:08.114Z,15.68
2017-12-21T22:44:35.897Z,15.50
2017-12-21T22:47:03.682Z,15.98
2017-12-21T22:49:31.431Z,15.45
2017-12-21T22:51:59.212Z,14.25
2017-12-21T22:54:26.925Z,15.75
2017-12-21T22:56:54.674Z,14.60
2017-12-21T22:59:23.217Z,12.52
2017-12-21T23:01:50.930Z,12.85
2017-12-21T23:04:18.693Z,11.98
2017-12-21T23:06:46.466Z,17.65
2017-12-21T23:09:14.166Z,16.55
2017-12-21T23:11:41.860Z,27.17
2017-12-21T23:14:09.616Z,22.83
2017-12-21T23:16:38.129Z,17.10
2017-12-21T23:19:05.850Z,13.70
2017-12-21T23:21:34.389Z,14.60
2017-12-21T23:24:02.102Z,14.40
2017-12-21T23:26:29.862Z,16.58
2017-12-21T23:28:58.394Z,15.13
2017-12-21T23:31:26.086Z,13.70
2017-12-21T23:33:54.569Z,13.62
2017-12-21T23:36:23.085Z,13.20
2017-12-21T23:38:50.778Z,14.32
2017-12-21T23:41:18.485Z,10.20
2017-12-21T23:43:46.239Z,10.65
2017-12-21T23:46:14.701Z,11.63
2017-12-21T23:48:43.170Z,14.55
2017-12-21T23:51:10.953Z,12.55
2017-12-21T23:53:39.447Z,11.35
2017-12-21T23:56:07.933Z,12.00
2017-12-21T23:58:35.677Z,11.98
